LNG Imo — ZCDT6 — position and weather

sailwx.info

Track history (hours):
 
Tides and Currents Weather Stations Pressure Air Temp Water Temp Dewpoint Dewpoint Depression Visibility Wind Speed Wind Dir Waves Ship Positions

LNG Imo

Last reported at 2016-Apr-06 06:27 UTC. Time now 2016-May-04 19:16 UTC.
Position N 31°08' E 032°19'.
Warning: this ship's position is 28 days out of date.

Length 288 m; draft 11.5 m.

Type: Ship (hazmat cat D). MMSI: 310565000.

Date/timePositionNaut miles runAvg speedWind from/ knotsBaromVisibWave heightAir tempDewpointWater temp
2016-Apr-06 06:27N 31°08' E 032°19'8 6.9
2016-Apr-06 05:17N 31°16' E 032°21'6 8.8
2016-Apr-06 04:33N 31°22' E 032°23'5 5.4
2016-Apr-06 03:33N 31°25' E 032°18'0 0.3
2016-Apr-06 02:28N 31°25' E 032°18'0 0.1
2016-Apr-06 01:31N 31°25' E 032°18'0 0.0
2016-Apr-06 00:25N 31°25' E 032°17'0 0.0
2016-Apr-05 23:31N 31°25' E 032°17'0 0.0
2016-Apr-05 22:28N 31°25' E 032°17'0 0.0
2016-Apr-05 21:28N 31°25' E 032°17'0 0.0
2016-Apr-05 20:28N 31°25' E 032°17'0 0.0
2016-Apr-05 19:22N 31°25' E 032°17'0 0.0
2016-Apr-05 18:31N 31°25' E 032°17'0 0.0
2016-Apr-05 17:33N 31°25' E 032°17'3 2.4
2016-Apr-05 16:19N 31°27' E 032°16'1316.6
2016-Apr-05 15:34N 31°37' E 032°06'1818.1
2016-Apr-05 14:34N 31°48' E 031°49'1918.9
2016-Apr-05 13:33N 31°55' E 031°29'1918.9
2016-Apr-05 12:33N 32°03' E 031°08'1918.7
2016-Apr-05 11:32N 32°11' E 030°48'1818.7
2016-Apr-05 10:34N 32°17' E 030°27'2019.4
2016-Apr-05 09:32N 32°20' E 030°04'1818.9
2016-Apr-05 08:33N 32°24' E 029°43'6415.9
2016-Apr-05 04:32N 32°39' E 028°29'71818.4
2016-Apr-03 13:33N 35°30' E 014°28'1918.0
2016-Apr-03 12:31N 35°42' E 014°10'1717.8
2016-Apr-03 11:33N 35°52' E 013°54'2118.3
2016-Apr-03 10:25N 36°06' E 013°34'1618.3
2016-Apr-03 09:33N 36°16' E 013°19'89418.9
2016-Apr-01 10:18N 36°01' W 005°08'1621.1
2016-Apr-01 09:33N 35°57' W 005°27'63217.4
2016-Mar-30 21:14N 28°47' W 014°35'1318.7
2016-Mar-30 20:33N 28°38' W 014°45'1918.6
2016-Mar-30 19:33N 28°25' W 015°00'1818.1
2016-Mar-30 18:33N 28°12' W 015°14'8 7.6
2016-Mar-30 17:33N 28°06' W 015°20'1312.7
2016-Mar-30 16:33N 27°54' W 015°17'68117.9
2016-Mar-29 02:33N 16°54' W 018°18'2718.7
2016-Mar-29 01:06N 16°26' W 018°18'1418.9
2016-Mar-29 00:23N 16°13' W 018°18'1618.8
2016-Mar-28 23:32N 15°57' W 018°18'1818.7
2016-Mar-28 22:33N 15°39' W 018°18'2818.7
2016-Mar-28 21:04N 15°11' W 018°18'1218.2
2016-Mar-28 20:23N 14°58' W 018°18'1618.5
2016-Mar-28 19:33N 14°43' W 018°18'1918.7
2016-Mar-28 18:32N 14°24' W 018°18'1918.9
2016-Mar-28 17:30N 14°04' W 018°18'13818.9
2016-Mar-28 10:11N 11°48' W 017°54'1519.1
2016-Mar-28 09:22N 11°34' W 017°49'1619.2
2016-Mar-28 08:33N 11°19' W 017°44'9518.9
2016-Mar-28 03:32N 09°52' W 017°05'2019.1
2016-Mar-28 02:29N 09°37' W 016°51'2519.2
2016-Mar-28 01:11N 09°20' W 016°33'3219.5
2016-Mar-27 23:32N 08°57' W 016°09'1919.3
2016-Mar-27 22:33N 08°44' W 015°56'4619.2
2016-Mar-27 20:08N 08°11' W 015°22'7419.3
2016-Mar-27 16:20N 07°20' W 014°29'  
Track history (hours):
 
Tides and Currents Weather Stations Pressure Air Temp Water Temp Dewpoint Dewpoint Depression Visibility Wind Speed Wind Dir Waves Ship Positions

LNG Imo

Last reported at 2016-Apr-06 06:27 UTC. Time now 2016-May-04 19:16 UTC.
Position N 31°08' E 032°19'.
Warning: this ship's position is 28 days out of date.

Length 288 m; draft 11.5 m.

Type: Ship (hazmat cat D). MMSI: 310565000.

Date/timePositionNaut miles runAvg speedWind from/ knotsBaromVisibWave heightAir tempDewpointWater temp
2016-Apr-06 06:27N 31°08' E 032°19'8 6.9
2016-Apr-06 05:17N 31°16' E 032°21'6 8.8
2016-Apr-06 04:33N 31°22' E 032°23'5 5.4
2016-Apr-06 03:33N 31°25' E 032°18'0 0.3
2016-Apr-06 02:28N 31°25' E 032°18'0 0.1
2016-Apr-06 01:31N 31°25' E 032°18'0 0.0
2016-Apr-06 00:25N 31°25' E 032°17'0 0.0
2016-Apr-05 23:31N 31°25' E 032°17'0 0.0
2016-Apr-05 22:28N 31°25' E 032°17'0 0.0
2016-Apr-05 21:28N 31°25' E 032°17'0 0.0
2016-Apr-05 20:28N 31°25' E 032°17'0 0.0
2016-Apr-05 19:22N 31°25' E 032°17'0 0.0
2016-Apr-05 18:31N 31°25' E 032°17'0 0.0
2016-Apr-05 17:33N 31°25' E 032°17'3 2.4
2016-Apr-05 16:19N 31°27' E 032°16'1316.6
2016-Apr-05 15:34N 31°37' E 032°06'1818.1
2016-Apr-05 14:34N 31°48' E 031°49'1918.9
2016-Apr-05 13:33N 31°55' E 031°29'1918.9
2016-Apr-05 12:33N 32°03' E 031°08'1918.7
2016-Apr-05 11:32N 32°11' E 030°48'1818.7
2016-Apr-05 10:34N 32°17' E 030°27'2019.4
2016-Apr-05 09:32N 32°20' E 030°04'1818.9
2016-Apr-05 08:33N 32°24' E 029°43'6415.9
2016-Apr-05 04:32N 32°39' E 028°29'71818.4
2016-Apr-03 13:33N 35°30' E 014°28'1918.0
2016-Apr-03 12:31N 35°42' E 014°10'1717.8
2016-Apr-03 11:33N 35°52' E 013°54'2118.3
2016-Apr-03 10:25N 36°06' E 013°34'1618.3
2016-Apr-03 09:33N 36°16' E 013°19'89418.9
2016-Apr-01 10:18N 36°01' W 005°08'1621.1
2016-Apr-01 09:33N 35°57' W 005°27'63217.4
2016-Mar-30 21:14N 28°47' W 014°35'1318.7
2016-Mar-30 20:33N 28°38' W 014°45'1918.6
2016-Mar-30 19:33N 28°25' W 015°00'1818.1
2016-Mar-30 18:33N 28°12' W 015°14'8 7.6
2016-Mar-30 17:33N 28°06' W 015°20'1312.7
2016-Mar-30 16:33N 27°54' W 015°17'68117.9
2016-Mar-29 02:33N 16°54' W 018°18'2718.7
2016-Mar-29 01:06N 16°26' W 018°18'1418.9
2016-Mar-29 00:23N 16°13' W 018°18'1618.8
2016-Mar-28 23:32N 15°57' W 018°18'1818.7
2016-Mar-28 22:33N 15°39' W 018°18'2818.7
2016-Mar-28 21:04N 15°11' W 018°18'1218.2
2016-Mar-28 20:23N 14°58' W 018°18'1618.5
2016-Mar-28 19:33N 14°43' W 018°18'1918.7
2016-Mar-28 18:32N 14°24' W 018°18'1918.9
2016-Mar-28 17:30N 14°04' W 018°18'13818.9
2016-Mar-28 10:11N 11°48' W 017°54'1519.1
2016-Mar-28 09:22N 11°34' W 017°49'1619.2
2016-Mar-28 08:33N 11°19' W 017°44'9518.9
2016-Mar-28 03:32N 09°52' W 017°05'2019.1
2016-Mar-28 02:29N 09°37' W 016°51'2519.2
2016-Mar-28 01:11N 09°20' W 016°33'3219.5
2016-Mar-27 23:32N 08°57' W 016°09'1919.3
2016-Mar-27 22:33N 08°44' W 015°56'4619.2
2016-Mar-27 20:08N 08°11' W 015°22'7419.3
2016-Mar-27 16:20N 07°20' W 014°29'  

Dump ship's entire track history